createdAt,value
2022-10-25T02:03:02.651Z,9.80
2022-10-25T02:05:32.397Z,9.80
2022-10-25T02:08:14.659Z,9.70
2022-10-25T02:10:53.691Z,9.70
2022-10-25T02:13:37.646Z,9.60
2022-10-25T02:16:20.544Z,9.60
2022-10-25T02:18:52.241Z,9.60
2022-10-25T02:21:20.310Z,9.60
2022-10-25T02:23:49.580Z,9.60
2022-10-25T02:26:18.391Z,9.70
2022-10-25T02:28:47.060Z,9.70
2022-10-25T02:31:17.737Z,9.70
2022-10-25T02:33:48.534Z,9.70
2022-10-25T02:36:21.449Z,9.70
2022-10-25T02:38:50.498Z,9.70
2022-10-25T02:41:17.872Z,9.70
2022-10-25T02:43:44.907Z,9.80
2022-10-25T02:46:14.317Z,9.80
2022-10-25T02:48:42.014Z,9.80
2022-10-25T02:51:10.335Z,9.80
2022-10-25T02:53:37.767Z,9.90
2022-10-25T02:56:09.810Z,9.80
2022-10-25T02:58:38.916Z,9.90
2022-10-25T03:01:06.992Z,9.90
2022-10-25T03:03:34.711Z,10.00
2022-10-25T03:06:01.760Z,10.00
2022-10-25T03:11:01.145Z,10.00
2022-10-25T03:13:28.168Z,10.00
2022-10-25T03:15:55.335Z,10.00
2022-10-25T03:18:22.549Z,10.10
2022-10-25T03:20:49.932Z,10.10
2022-10-25T03:23:17.523Z,10.10
2022-10-25T03:25:44.682Z,10.20
2022-10-25T03:28:11.522Z,10.10
2022-10-25T03:30:38.405Z,10.10
2022-10-25T03:33:05.263Z,10.10
2022-10-25T03:35:32.116Z,10.00
2022-10-25T03:37:59.084Z,9.90
2022-10-25T03:40:25.948Z,9.80
2022-10-25T03:42:52.880Z,9.80
2022-10-25T03:45:19.783Z,9.70
2022-10-25T03:47:47.055Z,9.70
2022-10-25T03:50:14.595Z,9.60
2022-10-25T03:52:41.641Z,9.60
2022-10-25T03:55:09.347Z,9.60
2022-10-25T03:57:36.535Z,9.50
2022-10-25T04:00:04.898Z,9.50
2022-10-25T04:02:31.761Z,9.50
2022-10-25T04:04:58.672Z,9.50
2022-10-25T04:07:25.578Z,9.50
2022-10-25T04:09:52.440Z,9.40
2022-10-25T04:12:19.311Z,9.30
2022-10-25T04:14:46.499Z,9.40
2022-10-25T04:17:13.412Z,9.30
2022-10-25T04:19:40.389Z,9.20
2022-10-25T04:22:07.506Z,9.20
2022-10-25T04:24:34.414Z,9.10
2022-10-25T04:27:01.369Z,9.00
2022-10-25T04:29:28.240Z,9.00
2022-10-25T04:31:55.089Z,9.00
2022-10-25T04:34:22.089Z,9.00
2022-10-25T04:36:49.433Z,9.00
2022-10-25T04:39:16.320Z,8.90
2022-10-25T04:41:43.163Z,8.90
2022-10-25T04:44:10.485Z,8.90
2022-10-25T04:46:37.851Z,8.90
2022-10-25T04:49:04.910Z,8.80
2022-10-25T04:51:32.194Z,8.80
2022-10-25T04:54:00.360Z,8.70
2022-10-25T04:56:28.853Z,8.70
2022-10-25T04:58:56.363Z,8.80
2022-10-25T05:01:23.339Z,8.80
2022-10-25T05:03:53.349Z,8.80
2022-10-25T05:06:27.259Z,8.70
2022-10-25T05:08:55.027Z,8.70
2022-10-25T05:11:24.523Z,8.70
2022-10-25T05:13:52.177Z,8.70
2022-10-25T05:16:23.855Z,8.60
2022-10-25T05:18:54.795Z,8.60
2022-10-25T05:24:02.123Z,8.60
2022-10-25T05:26:30.047Z,8.60
2022-10-25T05:28:57.113Z,8.60
2022-10-25T05:31:29.126Z,8.70
2022-10-25T05:33:59.387Z,8.70
2022-10-25T05:36:29.476Z,8.70
2022-10-25T05:38:56.884Z,8.70
2022-10-25T05:41:23.911Z,8.80
2022-10-25T05:43:51.375Z,8.80
2022-10-25T05:46:22.747Z,8.80
2022-10-25T05:48:52.110Z,8.80
2022-10-25T05:51:40.368Z,8.70
2022-10-25T05:54:10.963Z,8.80
2022-10-25T05:56:38.760Z,8.80
2022-10-25T05:59:11.338Z,8.80
2022-10-25T06:01:44.611Z,8.80
2022-10-25T06:04:14.500Z,8.90
2022-10-25T06:06:42.875Z,8.90
2022-10-25T06:09:10.726Z,8.90
2022-10-25T06:11:38.463Z,8.90
2022-10-25T06:14:05.963Z,8.90
2022-10-25T06:16:34.296Z,8.90
2022-10-25T06:19:01.959Z,8.90
2022-10-25T06:21:30.399Z,8.80
2022-10-25T06:23:59.144Z,8.90
2022-10-25T06:26:28.853Z,8.90
2022-10-25T06:28:58.828Z,8.90
2022-10-25T06:31:26.747Z,8.90
2022-10-25T06:33:53.602Z,8.90
2022-10-25T06:36:22.613Z,8.80
2022-10-25T06:38:50.427Z,8.80
2022-10-25T06:41:28.217Z,8.80
2022-10-25T06:43:55.670Z,8.70
2022-10-25T06:46:27.917Z,8.70
2022-10-25T06:48:56.550Z,8.70
2022-10-25T06:51:24.564Z,8.70
2022-10-25T06:53:59.284Z,8.70
2022-10-25T06:56:27.540Z,8.80
2022-10-25T06:58:55.304Z,8.70
2022-10-25T07:01:24.312Z,8.70
2022-10-25T07:03:53.756Z,8.70
2022-10-25T07:06:26.790Z,8.70
2022-10-25T07:09:01.398Z,8.70
2022-10-25T07:11:30.747Z,8.70
2022-10-25T07:13:59.047Z,8.70
2022-10-25T07:16:27.164Z,8.70
2022-10-25T07:18:58.593Z,8.80
2022-10-25T07:21:25.598Z,8.80
2022-10-25T07:23:52.580Z,8.80
2022-10-25T07:26:22.816Z,8.80
2022-10-25T07:28:51.423Z,8.70
2022-10-25T07:31:23.972Z,8.70
2022-10-25T07:33:52.948Z,8.70
2022-10-25T07:36:20.465Z,8.60
2022-10-25T07:38:47.367Z,8.60
2022-10-25T07:41:14.370Z,8.60
2022-10-25T07:43:41.491Z,8.70
2022-10-25T07:46:08.850Z,8.70
2022-10-25T07:48:35.855Z,8.60
2022-10-25T07:51:08.058Z,8.60
2022-10-25T07:53:35.213Z,8.70
2022-10-25T07:56:02.686Z,8.70
2022-10-25T07:58:29.642Z,8.70
2022-10-25T08:01:04.714Z,8.80
2022-10-25T08:03:32.510Z,8.80
2022-10-25T08:06:00.412Z,8.90
2022-10-25T08:08:30.187Z,8.90
2022-10-25T08:10:57.485Z,8.90
2022-10-25T08:13:24.471Z,9.00
2022-10-25T08:15:52.729Z,9.00
2022-10-25T08:18:19.655Z,9.00
2022-10-25T08:21:03.339Z,9.00
2022-10-25T08:23:32.321Z,9.00
2022-10-25T08:26:00.231Z,9.10
2022-10-25T08:28:27.187Z,9.10
2022-10-25T08:30:55.690Z,9.20
